Bancroft, Maine
Current Conditions -  °F | °C
As of 9:53 AM on Wednesday 26 Nov 2014 (Local Time) from KHUL Reporting Station
Clear Clear  
Wind Chill: 32°   Ceiling: Unl
Heat Index: 37°   Visibility: 10mi
Dew Point: 22°   Wind: 6mph
Humidity: 54%   Direction: NA
Pressure: 30.2"   Gusts: NA
Location:  45.7877°N, 68.0764°W
Report Text: KHUL 261453Z AUTO VRB05KT 10SM CLR 03/M06 A3020 RMK AO2 SLP233 T00281056 53019
Loading
Personal Weather Stations






























Interactive Weather Map New forecast layout! Learn more

10-Day Weather Forecast

Advertisements
Track Severe Weather on mobile